Niles, Indiana
Current Conditions -  °F | °C
As of 11:53 AM on Tuesday 21 Oct 2014 (Local Time) from KMIE Reporting Station
Overcast Overcast  
Wind Chill: 52°   Ceiling: 6000
Heat Index: 52°   Visibility: 10mi
Dew Point: 42°   Wind: 16mph
Humidity: 69%   Direction: 350°N
Pressure: 30.07"   Gusts: 22mph
Location:  40.3453°N, 85.3353°W
Report Text: KMIE 211553Z 35014G19KT 10SM FEW024 OVC060 11/06 A3007 RMK AO2 SLP179 T01110056
Loading
Personal Weather Stations






























Interactive Weather Map New forecast layout! Learn more

10-Day Weather Forecast

Advertisements
Track Severe Weather on mobile